createdAt,value
2022-11-20T00:01:37.360Z,42.10
2022-11-20T00:04:05.825Z,42.70
2022-11-20T00:06:34.223Z,43.80
2022-11-20T00:09:02.832Z,39.00
2022-11-20T00:11:32.377Z,39.40
2022-11-20T00:14:02.686Z,39.00
2022-11-20T00:16:33.377Z,38.30
2022-11-20T00:19:02.430Z,39.40
2022-11-20T00:21:31.404Z,37.10
2022-11-20T00:23:59.895Z,38.50
2022-11-20T00:26:29.608Z,37.00
2022-11-20T00:29:01.604Z,37.60
2022-11-20T00:31:31.483Z,37.60
2022-11-20T00:33:59.800Z,40.90
2022-11-20T00:36:31.099Z,40.80
2022-11-20T00:38:59.707Z,39.60
2022-11-20T00:41:31.168Z,41.60
2022-11-20T00:43:59.577Z,40.30
2022-11-20T00:46:28.845Z,39.80
2022-11-20T00:48:57.458Z,37.30
2022-11-20T00:51:27.642Z,43.20
2022-11-20T00:53:57.939Z,41.40
2022-11-20T00:56:26.842Z,37.50
2022-11-20T00:58:55.342Z,40.30
2022-11-20T01:01:26.597Z,40.50
2022-11-20T01:03:57.243Z,36.10
2022-11-20T01:06:31.817Z,39.30
2022-11-20T01:09:02.738Z,37.20
2022-11-20T01:11:37.115Z,43.10
2022-11-20T01:14:09.349Z,42.60
2022-11-20T01:16:49.392Z,40.60
2022-11-20T01:19:23.137Z,41.40
2022-11-20T01:21:54.262Z,36.20
2022-11-20T01:24:23.930Z,41.80
2022-11-20T01:26:53.333Z,36.70
2022-11-20T01:29:24.982Z,40.30
2022-11-20T01:31:54.259Z,38.10
2022-11-20T01:34:23.729Z,39.70
2022-11-20T01:36:54.017Z,44.30
2022-11-20T01:39:25.250Z,42.00
2022-11-20T01:42:13.487Z,41.50
2022-11-20T01:44:53.141Z,41.90
2022-11-20T01:47:38.398Z,41.30
2022-11-20T01:50:21.060Z,42.30
2022-11-20T01:52:54.983Z,38.60
2022-11-20T01:55:32.163Z,43.80
2022-11-20T01:58:01.911Z,42.60
2022-11-20T02:00:30.324Z,43.80
2022-11-20T02:03:01.619Z,42.30
2022-11-20T02:05:36.671Z,36.50
2022-11-20T02:08:06.930Z,41.10
2022-11-20T02:10:36.891Z,40.20
2022-11-20T02:13:24.192Z,42.50
2022-11-20T02:15:53.204Z,41.90
2022-11-20T02:18:23.259Z,40.50
2022-11-20T02:21:00.508Z,45.90
2022-11-20T02:23:32.145Z,42.30
2022-11-20T02:26:04.773Z,42.00
2022-11-20T02:28:33.595Z,35.20
2022-11-20T02:31:02.375Z,37.70
2022-11-20T02:33:30.725Z,41.10
2022-11-20T02:35:59.079Z,40.50
2022-11-20T02:38:27.730Z,35.90
2022-11-20T02:40:56.187Z,44.00
2022-11-20T02:43:24.779Z,43.40
2022-11-20T02:45:53.103Z,44.20
2022-11-20T02:48:22.962Z,45.40
2022-11-20T02:50:53.378Z,42.90
2022-11-20T02:53:21.719Z,39.40
2022-11-20T02:55:50.074Z,40.00
2022-11-20T02:58:18.462Z,42.50
2022-11-20T03:00:46.837Z,41.20
2022-11-20T03:03:15.143Z,39.10
2022-11-20T03:05:43.523Z,44.80
2022-11-20T03:08:11.958Z,40.40
2022-11-20T03:10:40.140Z,42.00
2022-11-20T03:13:08.406Z,44.90
2022-11-20T03:15:38.203Z,42.10
2022-11-20T03:18:06.367Z,38.70
2022-11-20T03:20:35.055Z,42.80
2022-11-20T03:23:03.730Z,39.10
2022-11-20T03:25:32.735Z,36.00
2022-11-20T03:28:00.847Z,44.30
2022-11-20T03:30:30.926Z,46.70
2022-11-20T03:32:59.394Z,42.90
2022-11-20T03:35:27.711Z,42.50
2022-11-20T03:37:55.824Z,44.80
2022-11-20T03:40:23.974Z,44.90
2022-11-20T03:42:52.152Z,38.00
2022-11-20T03:45:20.544Z,37.20
2022-11-20T03:47:51.674Z,38.20
2022-11-20T03:50:19.801Z,38.30
2022-11-20T03:52:47.961Z,44.00
2022-11-20T03:55:16.445Z,47.40
2022-11-20T03:57:44.865Z,46.30
2022-11-20T04:00:16.821Z,44.80
2022-11-20T04:02:44.926Z,48.60
2022-11-20T04:05:13.109Z,42.50
2022-11-20T04:07:41.563Z,45.20
2022-11-20T04:10:09.940Z,43.20
2022-11-20T04:12:38.077Z,41.20
2022-11-20T04:15:06.547Z,46.60
2022-11-20T04:17:35.172Z,43.90
2022-11-20T04:20:04.780Z,42.10
2022-11-20T04:22:35.282Z,42.90
2022-11-20T04:25:03.657Z,44.80
2022-11-20T04:27:32.027Z,46.80
2022-11-20T04:30:00.141Z,46.70
2022-11-20T04:32:28.338Z,48.80
2022-11-20T04:34:56.442Z,42.70
2022-11-20T04:37:24.588Z,41.10
2022-11-20T04:39:52.739Z,42.60
2022-11-20T04:42:30.037Z,47.60
2022-11-20T04:44:59.711Z,44.60
2022-11-20T04:47:28.210Z,45.30
2022-11-20T04:49:56.402Z,48.70
2022-11-20T04:52:25.826Z,47.40
2022-11-20T04:54:54.469Z,51.30
2022-11-20T04:57:22.796Z,48.40
2022-11-20T04:59:50.878Z,50.70
2022-11-20T05:02:19.361Z,45.90
2022-11-20T05:04:47.660Z,44.80
2022-11-20T05:07:16.109Z,47.90
2022-11-20T05:09:44.286Z,49.70
2022-11-20T05:12:12.966Z,44.20
2022-11-20T05:14:43.784Z,46.90
2022-11-20T05:17:13.539Z,48.90
2022-11-20T05:19:41.763Z,48.00
2022-11-20T05:22:09.983Z,51.90
2022-11-20T05:24:38.150Z,49.30
2022-11-20T05:27:07.399Z,53.50
2022-11-20T05:29:35.546Z,49.30
2022-11-20T05:32:03.782Z,55.80
2022-11-20T05:34:33.194Z,46.90
2022-11-20T05:37:01.621Z,49.40
2022-11-20T05:39:29.796Z,53.70
2022-11-20T05:42:17.449Z,55.80
2022-11-20T05:44:45.588Z,53.20
2022-11-20T05:47:13.748Z,51.30
2022-11-20T05:49:42.005Z,59.90
2022-11-20T05:52:10.169Z,48.70
2022-11-20T05:54:38.308Z,53.80
2022-11-20T05:57:06.496Z,47.00
2022-11-20T05:59:36.992Z,52.00
2022-11-20T06:02:06.201Z,47.10
2022-11-20T06:04:35.776Z,47.90
2022-11-20T06:07:05.812Z,51.20
2022-11-20T06:09:34.976Z,51.10
2022-11-20T06:12:03.393Z,49.60
2022-11-20T06:14:31.765Z,53.30
2022-11-20T06:17:00.584Z,52.30
2022-11-20T06:19:28.937Z,46.40
2022-11-20T06:21:57.289Z,46.30
2022-11-20T06:24:26.628Z,48.10
2022-11-20T06:26:54.924Z,50.80
2022-11-20T06:29:23.575Z,51.00
2022-11-20T06:31:52.193Z,50.20
2022-11-20T06:34:20.639Z,48.80
2022-11-20T06:36:48.916Z,49.50
2022-11-20T06:39:17.289Z,52.80
2022-11-20T06:41:45.638Z,49.90
2022-11-20T06:44:13.935Z,51.20
2022-11-20T06:46:42.211Z,52.70
2022-11-20T06:49:11.154Z,48.70
2022-11-20T06:51:39.578Z,51.10
2022-11-20T06:54:08.026Z,54.90
2022-11-20T06:56:36.343Z,53.30
2022-11-20T06:59:08.501Z,52.60
2022-11-20T07:01:36.910Z,56.20
2022-11-20T07:04:05.342Z,57.50
2022-11-20T07:06:33.639Z,51.50
2022-11-20T07:09:02.755Z,53.40
2022-11-20T07:11:31.013Z,59.80
2022-11-20T07:13:59.334Z,59.10
2022-11-20T07:16:27.663Z,54.40
2022-11-20T07:18:55.942Z,49.30
2022-11-20T07:21:24.226Z,59.10
2022-11-20T07:23:52.599Z,51.90
2022-11-20T07:26:21.127Z,57.80
2022-11-20T07:28:49.465Z,63.40
2022-11-20T07:31:19.640Z,68.90
2022-11-20T07:33:48.436Z,61.40
2022-11-20T07:36:16.785Z,66.20
2022-11-20T07:38:45.070Z,64.20
2022-11-20T07:41:13.346Z,61.90
2022-11-20T07:43:41.929Z,55.50
2022-11-20T07:46:10.367Z,63.40
2022-11-20T07:48:38.843Z,56.60
2022-11-20T07:51:07.231Z,57.50
2022-11-20T07:53:35.702Z,57.00
2022-11-20T07:56:04.704Z,59.50
2022-11-20T07:58:34.166Z,62.30
2022-11-20T08:01:08.845Z,57.40
2022-11-20T08:03:38.899Z,60.10
2022-11-20T08:06:07.789Z,57.60
2022-11-20T08:08:40.108Z,59.30
2022-11-20T08:11:29.337Z,62.40
2022-11-20T08:14:13.123Z,57.40
2022-11-20T08:16:46.472Z,59.40
2022-11-20T08:19:16.592Z,59.00
2022-11-20T08:21:45.480Z,57.90
2022-11-20T08:24:14.341Z,57.90
2022-11-20T08:26:42.956Z,57.10
2022-11-20T08:29:11.340Z,58.30
2022-11-20T08:31:39.689Z,59.30
2022-11-20T08:34:28.037Z,56.40
2022-11-20T08:36:56.384Z,53.90
2022-11-20T08:39:25.393Z,55.80
2022-11-20T08:41:54.374Z,54.80
2022-11-20T08:44:23.057Z,56.50
2022-11-20T08:46:51.826Z,56.50
2022-11-20T08:49:20.869Z,54.00
2022-11-20T08:51:52.833Z,56.90
2022-11-20T08:54:23.082Z,54.80
2022-11-20T08:56:51.493Z,57.60
2022-11-20T08:59:37.229Z,50.10
2022-11-20T09:02:09.122Z,57.10
2022-11-20T09:04:37.696Z,51.70
2022-11-20T09:07:06.060Z,59.80
2022-11-20T09:09:34.706Z,55.20
2022-11-20T09:12:03.032Z,54.70
2022-11-20T09:14:31.650Z,57.00
2022-11-20T09:17:00.141Z,54.40
2022-11-20T09:22:16.852Z,56.30
2022-11-20T09:24:46.200Z,56.20
2022-11-20T09:27:15.586Z,57.30
2022-11-20T09:29:43.838Z,55.30
2022-11-20T09:32:12.120Z,55.50
2022-11-20T09:34:40.945Z,60.90
2022-11-20T09:37:09.308Z,59.70
2022-11-20T09:39:40.163Z,55.00
2022-11-20T09:42:54.116Z,54.20
2022-11-20T09:45:44.537Z,51.90
2022-11-20T09:48:50.022Z,56.80
2022-11-20T09:51:43.508Z,54.10
2022-11-20T09:54:21.741Z,59.60
2022-11-20T09:56:56.317Z,61.80
2022-11-20T09:59:31.808Z,59.10
2022-11-20T10:02:01.880Z,56.90
2022-11-20T10:04:36.771Z,61.10
2022-11-20T10:07:32.970Z,54.80
2022-11-20T10:10:02.088Z,62.60
2022-11-20T10:12:44.848Z,57.10
2022-11-20T10:15:43.276Z,49.20
2022-11-20T10:18:24.603Z,66.50
2022-11-20T10:20:55.529Z,57.00
2022-11-20T10:23:32.743Z,61.00
2022-11-20T10:26:17.889Z,60.60
2022-11-20T10:29:09.150Z,66.60
2022-11-20T10:31:43.632Z,61.90
2022-11-20T10:34:27.743Z,66.30
2022-11-20T10:36:59.727Z,43.30
2022-11-20T10:39:43.947Z,59.40
2022-11-20T10:42:17.806Z,63.70
2022-11-20T10:45:05.993Z,59.90
2022-11-20T10:47:37.262Z,59.90
2022-11-20T10:50:12.196Z,62.10
2022-11-20T10:53:01.874Z,61.00
2022-11-20T10:55:40.392Z,60.50
2022-11-20T10:58:19.913Z,62.60
2022-11-20T11:00:48.242Z,66.20
2022-11-20T11:03:28.646Z,69.10
2022-11-20T11:06:38.887Z,66.60
2022-11-20T11:09:18.952Z,64.20
2022-11-20T11:11:47.359Z,65.20
2022-11-20T11:14:16.905Z,64.40
2022-11-20T11:16:59.011Z,61.40
2022-11-20T11:19:27.324Z,57.40
2022-11-20T11:22:00.209Z,57.60
2022-11-20T11:24:46.240Z,54.50
2022-11-20T11:27:18.965Z,51.90
2022-11-20T11:29:48.230Z,56.40
2022-11-20T11:32:21.802Z,56.40
2022-11-20T11:35:02.075Z,52.70
2022-11-20T11:37:39.500Z,54.70
2022-11-20T11:40:27.598Z,53.40
2022-11-20T11:43:01.373Z,50.10
2022-11-20T11:45:30.037Z,60.30
2022-11-20T11:48:02.186Z,59.30
2022-11-20T11:50:30.998Z,60.80
2022-11-20T11:53:16.078Z,50.30
2022-11-20T11:56:06.638Z,59.90
2022-11-20T11:58:44.516Z,52.70
2022-11-20T12:01:42.577Z,54.60
2022-11-20T12:04:47.597Z,61.50
2022-11-20T12:07:48.037Z,59.40
2022-11-20T12:10:24.192Z,59.50
2022-11-20T12:13:02.035Z,52.10
2022-11-20T12:15:32.519Z,59.10
2022-11-20T12:18:01.889Z,50.50
2022-11-20T12:20:41.793Z,51.90
2022-11-20T12:23:23.932Z,54.00
2022-11-20T12:25:55.690Z,60.40
2022-11-20T12:28:55.981Z,56.80
2022-11-20T12:31:24.293Z,58.80
2022-11-20T12:34:09.569Z,56.50
2022-11-20T12:37:00.157Z,51.90
2022-11-20T12:39:43.801Z,58.70
2022-11-20T12:45:26.110Z,56.90
2022-11-20T12:48:16.328Z,59.90
2022-11-20T12:51:13.900Z,62.70
2022-11-20T12:53:56.908Z,60.50
2022-11-20T12:56:33.135Z,60.60
2022-11-20T12:59:36.187Z,57.40
2022-11-20T13:02:16.084Z,59.90
2022-11-20T13:05:09.741Z,61.70
2022-11-20T13:07:38.699Z,58.50
2022-11-20T13:10:20.056Z,57.50
2022-11-20T13:13:13.319Z,57.50
2022-11-20T13:15:53.653Z,62.00
2022-11-20T13:18:22.438Z,60.70
2022-11-20T13:20:52.221Z,68.30
2022-11-20T13:23:28.743Z,53.60
2022-11-20T13:26:18.043Z,62.50
2022-11-20T13:28:48.627Z,59.90
2022-11-20T13:31:32.571Z,60.50
2022-11-20T13:34:04.580Z,65.30
2022-11-20T13:36:33.797Z,64.60
2022-11-20T13:39:02.314Z,66.20
2022-11-20T13:41:36.483Z,52.90
2022-11-20T13:44:40.040Z,62.10
2022-11-20T13:47:26.433Z,74.50
2022-11-20T13:49:58.350Z,62.90
2022-11-20T13:52:48.045Z,72.30
2022-11-20T13:55:51.378Z,64.50
2022-11-20T13:58:33.712Z,70.00
2022-11-20T14:01:21.048Z,59.20
2022-11-20T14:04:06.712Z,67.60
2022-11-20T14:06:48.380Z,65.70
2022-11-20T14:09:31.808Z,56.30
2022-11-20T14:12:00.927Z,57.10
2022-11-20T14:14:31.333Z,63.60
2022-11-20T14:17:18.074Z,59.70
2022-11-20T14:19:48.787Z,71.40
2022-11-20T14:22:18.027Z,58.30
2022-11-20T14:24:47.071Z,67.00
2022-11-20T14:27:21.973Z,68.20
2022-11-20T14:29:51.695Z,65.50
2022-11-20T14:32:23.466Z,61.10
2022-11-20T14:34:52.185Z,67.90
2022-11-20T14:37:27.557Z,62.20
2022-11-20T14:39:57.370Z,61.00
2022-11-20T14:42:32.030Z,69.00
2022-11-20T14:45:01.988Z,70.90
2022-11-20T14:47:32.308Z,76.10
2022-11-20T14:50:05.934Z,74.10
2022-11-20T14:52:38.620Z,79.10
2022-11-20T14:55:09.939Z,78.40
2022-11-20T14:57:38.390Z,79.90
2022-11-20T15:00:28.790Z,81.30
2022-11-20T15:02:57.298Z,74.60
2022-11-20T15:05:47.374Z,78.80
2022-11-20T15:08:17.368Z,73.20
2022-11-20T15:10:50.408Z,68.10
2022-11-20T15:13:18.766Z,71.40
2022-11-20T15:15:50.505Z,68.20
2022-11-20T15:18:39.445Z,62.30
2022-11-20T15:21:13.708Z,69.80
2022-11-20T15:23:42.748Z,69.90
2022-11-20T15:26:19.528Z,69.80
2022-11-20T15:28:51.364Z,71.60
2022-11-20T15:31:22.816Z,79.20
2022-11-20T15:33:51.764Z,73.80
2022-11-20T15:36:20.052Z,76.80
2022-11-20T15:38:48.490Z,71.80
2022-11-20T15:41:16.746Z,74.80
2022-11-20T15:43:45.141Z,67.60
2022-11-20T15:46:21.767Z,78.80
2022-11-20T15:48:56.580Z,72.70
2022-11-20T15:51:30.579Z,71.00
2022-11-20T15:54:00.574Z,70.10
2022-11-20T15:56:29.123Z,71.70
2022-11-20T15:58:57.585Z,69.70
2022-11-20T16:01:26.156Z,75.80
2022-11-20T16:03:54.504Z,69.90
2022-11-20T16:06:23.358Z,75.00
2022-11-20T16:08:51.775Z,73.10
2022-11-20T16:11:20.417Z,79.20
2022-11-20T16:14:07.142Z,70.30
2022-11-20T16:16:37.692Z,75.10
2022-11-20T16:19:06.458Z,76.60
2022-11-20T16:21:35.946Z,86.70
2022-11-20T16:24:06.532Z,74.90
2022-11-20T16:26:36.970Z,86.00
2022-11-20T16:29:07.275Z,80.80
2022-11-20T16:31:36.039Z,72.60
2022-11-20T16:34:11.943Z,80.00
2022-11-20T16:36:51.506Z,81.20
2022-11-20T16:39:23.691Z,78.80
2022-11-20T16:41:53.249Z,82.90
2022-11-20T16:44:22.344Z,70.90
2022-11-20T16:46:50.926Z,86.40
2022-11-20T16:49:19.426Z,84.40
2022-11-20T16:51:47.855Z,79.80
2022-11-20T16:54:20.851Z,83.80
2022-11-20T16:56:52.014Z,78.80
2022-11-20T16:59:20.738Z,75.70
2022-11-20T17:01:49.321Z,76.30
2022-11-20T17:04:17.818Z,85.90
2022-11-20T17:06:46.294Z,69.90
2022-11-20T17:09:14.813Z,76.30
2022-11-20T17:11:43.377Z,72.10
2022-11-20T17:14:12.725Z,74.60
2022-11-20T17:16:41.565Z,82.80
2022-11-20T17:19:10.050Z,88.10
2022-11-20T17:21:39.837Z,88.80
2022-11-20T17:24:11.651Z,81.70
2022-11-20T17:26:41.716Z,79.80
2022-11-20T17:29:14.304Z,68.30
2022-11-20T17:31:43.302Z,77.60
2022-11-20T17:34:13.868Z,78.00
2022-11-20T17:36:45.984Z,78.90
2022-11-20T17:39:16.117Z,75.80
2022-11-20T17:41:45.684Z,78.70
2022-11-20T17:44:14.037Z,80.90
2022-11-20T17:46:42.624Z,69.00
2022-11-20T17:49:11.282Z,73.00
2022-11-20T17:51:40.872Z,62.60
2022-11-20T17:54:11.165Z,70.30
2022-11-20T17:56:58.245Z,66.50
2022-11-20T17:59:27.369Z,71.70
2022-11-20T18:01:59.642Z,75.20
2022-11-20T18:04:30.888Z,73.20
2022-11-20T18:06:59.243Z,77.70
2022-11-20T18:09:27.887Z,76.10
2022-11-20T18:11:56.255Z,83.50
2022-11-20T18:14:34.903Z,67.90
2022-11-20T18:17:06.848Z,71.50
2022-11-20T18:19:55.745Z,60.60
2022-11-20T18:22:31.662Z,67.40
2022-11-20T18:25:00.019Z,61.80
2022-11-20T18:27:28.145Z,61.40
2022-11-20T18:29:56.551Z,56.70
2022-11-20T18:32:24.999Z,60.60
2022-11-20T18:34:53.507Z,59.40
2022-11-20T18:37:28.526Z,62.40
2022-11-20T18:39:57.194Z,65.60
2022-11-20T18:42:44.418Z,57.80
2022-11-20T18:45:12.784Z,56.20
2022-11-20T18:47:41.120Z,60.50
2022-11-20T18:50:09.851Z,63.50
2022-11-20T18:52:41.875Z,57.90
2022-11-20T18:55:11.239Z,56.00
2022-11-20T18:57:40.463Z,54.70
2022-11-20T19:00:10.425Z,62.70
2022-11-20T19:05:27.896Z,55.50
2022-11-20T19:07:56.324Z,52.60
2022-11-20T19:10:24.929Z,52.10
2022-11-20T19:12:53.164Z,57.40
2022-11-20T19:15:22.312Z,55.90
2022-11-20T19:17:53.615Z,58.00
2022-11-20T19:20:21.863Z,54.40
2022-11-20T19:22:51.251Z,53.00
2022-11-20T19:25:19.467Z,51.00
2022-11-20T19:27:47.735Z,61.50
2022-11-20T19:30:15.987Z,55.60
2022-11-20T19:32:44.151Z,55.00
2022-11-20T19:35:13.463Z,48.60
2022-11-20T19:37:41.776Z,57.70
2022-11-20T19:40:10.306Z,53.60
2022-11-20T19:42:39.569Z,57.30
2022-11-20T19:45:08.575Z,59.40
2022-11-20T19:48:06.023Z,52.10
2022-11-20T19:50:25.215Z,53.10
2022-11-20T19:52:58.523Z,50.70
2022-11-20T19:55:27.384Z,54.90
2022-11-20T19:57:56.519Z,49.50
2022-11-20T20:00:31.207Z,54.60
2022-11-20T20:03:01.140Z,48.00
2022-11-20T20:05:29.615Z,53.10
2022-11-20T20:07:57.921Z,50.10
2022-11-20T20:10:26.107Z,44.00
2022-11-20T20:12:54.363Z,53.60
2022-11-20T20:15:22.623Z,49.80
2022-11-20T20:17:54.167Z,44.60
2022-11-20T20:20:22.753Z,46.00
2022-11-20T20:22:51.250Z,45.50
2022-11-20T20:25:19.935Z,48.20
2022-11-20T20:27:52.316Z,46.20
2022-11-20T20:30:20.674Z,42.80
2022-11-20T20:32:53.313Z,53.10
2022-11-20T20:35:24.503Z,48.00
2022-11-20T20:37:53.214Z,41.70
2022-11-20T20:40:21.694Z,45.70
2022-11-20T20:42:50.260Z,48.50
2022-11-20T20:45:18.582Z,45.50
2022-11-20T20:47:46.858Z,47.00
2022-11-20T20:50:15.787Z,49.30
2022-11-20T20:52:44.651Z,47.60
2022-11-20T20:55:12.974Z,45.40
2022-11-20T20:57:41.901Z,50.30
2022-11-20T21:00:11.644Z,47.50
2022-11-20T21:02:40.065Z,48.00
2022-11-20T21:05:08.872Z,52.70
2022-11-20T21:07:57.428Z,50.10
2022-11-20T21:10:25.723Z,46.50
2022-11-20T21:12:54.090Z,45.30
2022-11-20T21:15:22.274Z,46.60
2022-11-20T21:17:51.110Z,52.80
2022-11-20T21:20:37.628Z,45.90
2022-11-20T21:23:10.905Z,47.30
2022-11-20T21:28:08.431Z,43.00
2022-11-20T21:30:37.797Z,42.30
2022-11-20T21:33:06.655Z,49.20
2022-11-20T21:35:35.386Z,40.10
2022-11-20T21:38:04.192Z,51.90
2022-11-20T21:40:36.144Z,47.90
2022-11-20T21:43:04.620Z,42.50
2022-11-20T21:45:32.940Z,43.00
2022-11-20T21:48:01.240Z,51.00
2022-11-20T21:50:30.145Z,41.40
2022-11-20T21:52:58.441Z,45.10
2022-11-20T21:55:27.179Z,45.60
2022-11-20T21:57:56.181Z,44.40
2022-11-20T22:00:24.647Z,46.20
2022-11-20T22:02:53.230Z,44.00
2022-11-20T22:05:21.504Z,42.30
2022-11-20T22:07:49.887Z,42.00
2022-11-20T22:10:18.834Z,44.60
2022-11-20T22:12:47.379Z,43.40
2022-11-20T22:15:27.991Z,44.10
2022-11-20T22:18:13.079Z,44.60
2022-11-20T22:20:41.860Z,43.70
2022-11-20T22:23:10.039Z,44.70
2022-11-20T22:25:38.519Z,43.60
2022-11-20T22:28:06.825Z,40.80
2022-11-20T22:30:35.088Z,41.90
2022-11-20T22:33:03.280Z,44.50
2022-11-20T22:35:31.480Z,44.20
2022-11-20T22:37:59.780Z,42.10
2022-11-20T22:40:28.144Z,39.90
2022-11-20T22:42:56.711Z,45.10
2022-11-20T22:45:25.124Z,39.60
2022-11-20T22:47:54.033Z,39.40
2022-11-20T22:50:25.584Z,43.50
2022-11-20T22:52:55.911Z,44.10
2022-11-20T22:55:24.076Z,38.40
2022-11-20T22:57:52.174Z,38.90
2022-11-20T23:00:20.593Z,42.40
2022-11-20T23:02:48.929Z,41.30
2022-11-20T23:05:17.052Z,37.50
2022-11-20T23:07:45.302Z,43.20
2022-11-20T23:10:13.881Z,45.90
2022-11-20T23:12:42.039Z,42.90
2022-11-20T23:15:10.979Z,50.40
2022-11-20T23:17:39.145Z,43.40
2022-11-20T23:20:08.362Z,47.30
2022-11-20T23:22:37.341Z,48.00
2022-11-20T23:25:06.382Z,43.80
2022-11-20T23:27:34.476Z,46.60
2022-11-20T23:30:02.871Z,48.20
2022-11-20T23:32:31.253Z,45.90
2022-11-20T23:34:59.465Z,42.50
2022-11-20T23:37:27.640Z,44.90
2022-11-20T23:39:55.739Z,44.50
2022-11-20T23:42:24.443Z,48.20
2022-11-20T23:44:52.791Z,49.00
2022-11-20T23:47:21.076Z,46.30
2022-11-20T23:49:49.593Z,47.40
2022-11-20T23:52:17.912Z,48.00
2022-11-20T23:54:46.352Z,46.20
2022-11-20T23:57:14.497Z,43.70
2022-11-20T23:59:42.611Z,43.40
